KSMOKRAL

Guest
Details From KSMO - SANTA MONICA MUNI
To KRAL - Riverside Muni
Flight Number -
Tags generated
Created
Modified
Stats Distance 50 nm / 93 km
Max Altitude 4,500 ft / 1,372 m
Waypoints 3
Social Downloads 0
Likes 0
Share VATSIM

Download

Looking for another format? Having issues loading an existing format? Contact us
Advertisement - Login to hide

Notes

Basic altitude profile: - Ascent Rate: 1000ft/min - Ascent Speed: 90kts - Cruise Altitude: 4500ft - Cruise Speed: 80kts - Descent Rate: 1500ft/min - Descent Speed: 80kts

Route

KSMO STABO KRAL

ID Type Via Altitude Latitude Longitude Leg Dist Tot Dist Heading (true) Name
O KSMO APT - 0 ft / 0 m 34.01585˚ -118.45133˚ - 0 nm - SANTA MONICA MUNI
STABO FIX - 4,500 ft / 1,372 m 34.00248˚ -118.28163˚ 8 nm 8 nm 95° / 95° -
O KRAL APT - 0 ft / 0 m 33.95173˚ -117.44591˚ 41 nm 50 nm 94° / 94° Riverside Muni

Altitude Profile

Advertisement - Login to hide

KSMO

Details ICAO KSMO (SMO)
Name SANTA MONICA MUNI
Region United States
Timezone America/Los_Angeles (UTC-8.0)
Stats Elevation 177 ft / 54 m (AMSL)
Location 34.015847° -118.451329°
Runways 1
Magnetic Variation 12.029° E

METAR

KSMO 130151Z 00000KT 6SM HZ FU CLR 17/09 A3004 RMK AO2 SLP171 T01670094

Decode

TAF

TAF KSMO 122354Z 1300/1324 23006KT 6SM FU SCT045 SCT250 FM130300 VRB03KT 6SM FU SCT045 SCT250 FM130900 04004KT P6SM SCT250 FM132000 24007KT P6SM SKC

Decode

Departure Runways

ID Width Length Bearing (true) Bearing (mag) Surface Threshold Offset Overrun Length
03 151 ft / 46 m 4,978 ft / 1,517 m 44.45° 32.42° Asphalt 0 ft / 0 m 0 ft / 0 m
21 151 ft / 46 m 4,978 ft / 1,517 m 224.46° 212.43° Asphalt 0 ft / 0 m 0 ft / 0 m

KRAL

Details ICAO KRAL (RAL)
Name Riverside Muni
Region United States
Timezone America/Los_Angeles (UTC-8.0)
Stats Elevation 818 ft / 249 m (AMSL)
Location 33.951727° -117.445911°
Runways 2
Magnetic Variation 11.810° E

METAR

KRAL 130153Z 06007KT 10SM CLR 23/M20 A3007 RMK AO2 SLP171 T02281200

Decode

TAF

Not found

Destination Runways

ID Width Length Bearing (true) Bearing (mag) Surface Threshold Offset Overrun Length
09 98 ft / 30 m 5,391 ft / 1,643 m 103.12° 91.31° Asphalt 0 ft / 0 m 0 ft / 0 m
16 49 ft / 15 m 2,859 ft / 871 m 178.57° 166.76° Asphalt 0 ft / 0 m 0 ft / 0 m
27 98 ft / 30 m 5,391 ft / 1,643 m 283.12° 271.31° Asphalt 0 ft / 0 m 0 ft / 0 m
34 49 ft / 15 m 2,859 ft / 871 m 358.57° 346.76° Asphalt 0 ft / 0 m 0 ft / 0 m

Approach Navaids

Runway Type Ident Frequency Range Bearing (true) Bearing (mag) Slope Elevation
09 Localiser IRAL 110.90 MHz 18 nm / 33 km 103.12° 91.31° - 828 ft / 252 m (AMSL)
09 Glidescope IRAL 110.90 MHz 10 nm / 19 km 103.12° 91.31° 3.00° 764 ft / 233 m (AMSL)

Popular Alternatives